createdAt,value
2022-12-13T00:00:24.452Z,97884.06
2022-12-13T00:05:26.281Z,97878.25
2022-12-13T00:10:28.689Z,97868.97
2022-12-13T00:15:30.566Z,97869.91
2022-12-13T00:20:32.546Z,97871.44
2022-12-13T00:25:34.322Z,97868.06
2022-12-13T00:30:36.488Z,97857.16
2022-12-13T00:35:42.271Z,97863.06
2022-12-13T00:40:44.137Z,97864.91
2022-12-13T00:45:46.043Z,97856.56
2022-12-13T00:50:48.046Z,97856.66
2022-12-13T00:55:49.827Z,97856.84
2022-12-13T01:00:51.827Z,97857.94
2022-12-13T01:11:16.215Z,97862.31
2022-12-13T01:16:18.844Z,97857.31
2022-12-13T01:21:22.200Z,97864.03
2022-12-13T01:26:24.335Z,97853.56
2022-12-13T01:31:26.767Z,97849.81
2022-12-13T01:36:28.623Z,97849.63
2022-12-13T01:41:34.195Z,97853.72
2022-12-13T01:46:36.305Z,97851.97
2022-12-13T01:52:00.921Z,97853.00
2022-12-13T01:57:06.855Z,97858.19
2022-12-13T02:02:12.264Z,97855.63
2022-12-13T02:07:23.035Z,97856.56
2022-12-13T02:12:32.144Z,97854.00
2022-12-13T02:17:45.923Z,97851.38
2022-12-13T02:23:05.944Z,97845.66
2022-12-13T02:28:30.568Z,97845.84
2022-12-13T02:33:43.522Z,97843.41
2022-12-13T02:39:09.400Z,97841.03
2022-12-13T02:44:22.404Z,97853.16
2022-12-13T02:49:30.091Z,97849.25
2022-12-13T02:54:31.900Z,97843.66
2022-12-13T02:59:39.975Z,97843.22
2022-12-13T03:05:45.840Z,97839.59
2022-12-13T03:11:09.766Z,97834.28
2022-12-13T03:16:40.275Z,97841.56
2022-12-13T03:21:48.186Z,97836.94
2022-12-13T03:26:51.906Z,97835.50
2022-12-13T03:31:54.684Z,97828.34
2022-12-13T03:36:56.595Z,97830.44
2022-12-13T03:42:02.930Z,97825.63
2022-12-13T03:47:04.712Z,97819.09
2022-12-13T03:52:06.466Z,97813.38
2022-12-13T03:57:08.228Z,97804.41
2022-12-13T04:02:10.078Z,97801.50
2022-12-13T04:07:22.089Z,97802.88
2022-12-13T04:12:48.669Z,97822.09
2022-12-13T04:17:51.247Z,97820.09
2022-12-13T04:22:53.186Z,97819.72
2022-12-13T04:27:54.964Z,97813.63
2022-12-13T04:32:56.931Z,97814.97
2022-12-13T04:37:58.771Z,97817.06
2022-12-13T04:43:00.529Z,97803.56
2022-12-13T04:48:02.350Z,97806.09
2022-12-13T04:53:04.167Z,97813.16
2022-12-13T04:58:05.945Z,97815.66
2022-12-13T05:03:08.295Z,97811.09
2022-12-13T05:08:10.132Z,97801.28
2022-12-13T05:13:11.945Z,97816.03
2022-12-13T05:18:14.042Z,97817.19
2022-12-13T05:23:22.329Z,97817.59
2022-12-13T05:28:28.965Z,97826.09
2022-12-13T05:33:30.925Z,97821.84
2022-12-13T05:38:32.702Z,97818.59
2022-12-13T05:43:42.839Z,97827.00
2022-12-13T05:48:45.303Z,97825.22
2022-12-13T05:53:51.649Z,97820.78
2022-12-13T05:58:55.334Z,97819.06
2022-12-13T06:03:57.238Z,97826.75
2022-12-13T06:08:59.806Z,97825.94
2022-12-13T06:14:01.846Z,97826.03
2022-12-13T06:19:04.740Z,97834.94
2022-12-13T06:24:08.780Z,97836.19
2022-12-13T06:29:11.292Z,97838.16
2022-12-13T06:34:15.381Z,97837.50
2022-12-13T06:39:17.614Z,97839.13
2022-12-13T06:44:19.423Z,97838.56
2022-12-13T06:49:21.533Z,97845.34
2022-12-13T06:54:24.116Z,97842.88
2022-12-13T06:59:25.975Z,97850.66
2022-12-13T07:04:29.252Z,97849.75
2022-12-13T07:09:33.371Z,97844.53
2022-12-13T07:14:40.904Z,97854.41
2022-12-13T07:19:44.398Z,97853.28
2022-12-13T07:24:46.627Z,97859.47
2022-12-13T07:29:48.527Z,97858.09
2022-12-13T07:34:50.963Z,97865.84
2022-12-13T07:39:54.683Z,97862.53
2022-12-13T07:45:00.722Z,97867.09
2022-12-13T07:50:02.736Z,97871.03
2022-12-13T07:55:05.833Z,97873.56
2022-12-13T08:00:08.352Z,97883.69
2022-12-13T08:05:26.695Z,97879.09
2022-12-13T08:10:29.874Z,97872.53
2022-12-13T08:15:32.084Z,97868.91
2022-12-13T08:20:34.018Z,97869.66
2022-12-13T08:25:38.289Z,97873.16
2022-12-13T08:30:40.106Z,97869.91
2022-12-13T08:35:42.051Z,97867.09
2022-12-13T08:40:44.092Z,97872.81
2022-12-13T08:45:45.903Z,97870.66
2022-12-13T08:50:47.666Z,97878.47
2022-12-13T08:55:49.466Z,97864.25
2022-12-13T09:00:51.302Z,97873.44
2022-12-13T09:05:53.931Z,97867.53
2022-12-13T09:11:11.388Z,97857.47
2022-12-13T09:16:24.997Z,97860.78
2022-12-13T09:21:31.428Z,97861.72
2022-12-13T09:26:37.545Z,97867.06
2022-12-13T09:31:40.741Z,97868.22
2022-12-13T09:36:42.986Z,97868.13
2022-12-13T09:41:49.526Z,97867.72
2022-12-13T09:46:54.662Z,97869.06
2022-12-13T09:52:11.141Z,97862.25
2022-12-13T09:57:34.411Z,97857.69
2022-12-13T10:03:02.932Z,97843.75
2022-12-13T10:08:12.180Z,97843.56
2022-12-13T10:13:23.125Z,97847.22
2022-12-13T10:18:35.287Z,97837.44
2022-12-13T10:23:59.923Z,97839.69
2022-12-13T10:29:05.543Z,97829.13
2022-12-13T10:34:25.741Z,97830.66
2022-12-13T10:39:42.186Z,97817.53
2022-12-13T10:44:44.993Z,97817.41
2022-12-13T10:49:59.492Z,97810.81
2022-12-13T10:55:23.028Z,97807.75
2022-12-13T11:00:40.038Z,97815.66
2022-12-13T11:05:42.254Z,97809.06
2022-12-13T11:10:44.217Z,97804.47
2022-12-13T11:15:46.123Z,97794.81
2022-12-13T11:21:09.426Z,97787.50
2022-12-13T11:26:24.469Z,97789.84
2022-12-13T11:31:41.612Z,97786.38
2022-12-13T11:37:08.049Z,97788.00
2022-12-13T11:42:27.991Z,97783.72
2022-12-13T11:47:44.500Z,97782.91
2022-12-13T11:52:54.740Z,97784.53
2022-12-13T11:58:53.530Z,97791.25
2022-12-13T12:04:00.336Z,97787.09
2022-12-13T12:09:06.633Z,97782.19
2022-12-13T12:14:50.030Z,97786.06
2022-12-13T12:19:57.503Z,97785.84
2022-12-13T12:25:31.362Z,97784.31
2022-12-13T12:30:42.017Z,97782.50
2022-12-13T12:36:02.144Z,97782.19
2022-12-13T12:41:17.297Z,97782.81
2022-12-13T12:46:28.577Z,97780.06
2022-12-13T12:51:56.403Z,97775.69
2022-12-13T12:57:11.072Z,97775.69
2022-12-13T13:02:31.467Z,97775.97
2022-12-13T13:07:51.519Z,97768.75
2022-12-13T13:13:11.514Z,97769.66
2022-12-13T13:18:52.371Z,97780.63
2022-12-13T13:24:14.602Z,97780.47
2022-12-13T13:29:28.643Z,97763.28
2022-12-13T13:34:32.106Z,97768.75
2022-12-13T13:39:54.113Z,97775.03
2022-12-13T13:45:00.650Z,97776.84
2022-12-13T13:50:08.220Z,97776.22
2022-12-13T13:55:28.807Z,97779.69
2022-12-13T14:01:02.012Z,97785.16
2022-12-13T14:06:45.323Z,97794.06
2022-12-13T14:11:52.971Z,97811.16
2022-12-13T14:16:54.760Z,97802.59
2022-12-13T14:22:02.601Z,97801.97
2022-12-13T14:27:30.764Z,97796.38
2022-12-13T14:32:37.082Z,97798.47
2022-12-13T14:37:39.041Z,97800.84
2022-12-13T14:42:41.919Z,97805.47
2022-12-13T14:47:50.393Z,97801.78
2022-12-13T14:52:52.681Z,97807.22
2022-12-13T14:57:57.732Z,97801.06
2022-12-13T15:03:02.229Z,97800.69
2022-12-13T15:08:10.202Z,97795.25
2022-12-13T15:13:24.373Z,97792.34
2022-12-13T15:18:28.192Z,97784.38
2022-12-13T15:23:49.241Z,97781.47
2022-12-13T15:28:57.663Z,97790.34
2022-12-13T15:34:33.945Z,97783.97
2022-12-13T15:39:39.055Z,97780.91
2022-12-13T15:44:48.063Z,97788.69
2022-12-13T15:49:50.466Z,97781.41
2022-12-13T15:55:04.785Z,97792.72
2022-12-13T16:00:18.794Z,97797.34
2022-12-13T16:05:29.640Z,97790.88
2022-12-13T16:10:31.952Z,97782.72
2022-12-13T16:15:59.840Z,97791.41
2022-12-13T16:21:02.333Z,97790.94
2022-12-13T16:26:08.738Z,97786.13
2022-12-13T16:31:18.133Z,97780.47
2022-12-13T16:36:20.447Z,97784.09
2022-12-13T16:41:22.463Z,97772.50
2022-12-13T16:47:17.900Z,97773.47
2022-12-13T16:51:50.438Z,97771.91
2022-12-13T16:56:54.334Z,97757.88
2022-12-13T17:01:56.191Z,97749.63
2022-12-13T17:06:57.957Z,97754.78
2022-12-13T17:11:59.809Z,97753.31
2022-12-13T17:17:01.745Z,97747.50
2022-12-13T17:22:03.855Z,97747.69
2022-12-13T17:27:05.706Z,97755.44
2022-12-13T17:32:07.512Z,97757.41
2022-12-13T17:37:10.734Z,97747.59
2022-12-13T17:42:12.750Z,97752.69
2022-12-13T17:47:14.665Z,97740.91
2022-12-13T17:52:16.492Z,97746.16
2022-12-13T17:57:18.266Z,97740.25
2022-12-13T18:02:23.121Z,97742.16
2022-12-13T18:07:25.016Z,97746.22
2022-12-13T18:12:27.010Z,97736.84
2022-12-13T18:18:01.632Z,97735.13
2022-12-13T18:22:55.946Z,97739.59
2022-12-13T18:28:01.030Z,97730.78
2022-12-13T18:33:05.144Z,97739.69
2022-12-13T18:38:06.966Z,97734.88
2022-12-13T18:43:08.793Z,97735.19
2022-12-13T18:48:10.747Z,97737.06
2022-12-13T18:53:12.835Z,97733.06
2022-12-13T18:58:15.575Z,97729.88
2022-12-13T19:03:17.436Z,97726.78
2022-12-13T19:08:19.283Z,97709.22
2022-12-13T19:13:23.176Z,97718.84
2022-12-13T19:18:25.219Z,97712.31
2022-12-13T19:23:27.427Z,97714.13
2022-12-13T19:28:29.465Z,97726.84
2022-12-13T19:33:32.582Z,97725.13
2022-12-13T19:38:35.298Z,97716.06
2022-12-13T19:43:37.483Z,97707.66
2022-12-13T19:48:39.318Z,97701.94
2022-12-13T19:53:41.609Z,97699.50
2022-12-13T19:58:44.637Z,97695.47
2022-12-13T20:03:47.030Z,97692.28
2022-12-13T20:08:49.715Z,97693.38
2022-12-13T20:13:55.042Z,97697.69
2022-12-13T20:18:59.486Z,97693.69
2022-12-13T20:24:01.372Z,97694.66
2022-12-13T20:29:03.152Z,97697.28
2022-12-13T20:34:09.216Z,97705.75
2022-12-13T20:39:13.474Z,97691.63
2022-12-13T20:44:15.401Z,97681.69
2022-12-13T20:49:17.571Z,97692.53
2022-12-13T20:54:19.326Z,97690.91
2022-12-13T20:59:21.371Z,97680.78
2022-12-13T21:04:23.355Z,97677.50
2022-12-13T21:09:26.239Z,97678.34
2022-12-13T21:14:29.185Z,97679.16
2022-12-13T21:19:39.991Z,97668.06
2022-12-13T21:24:42.493Z,97669.63
2022-12-13T21:29:44.243Z,97672.97
2022-12-13T21:34:46.208Z,97663.75
2022-12-13T21:39:48.009Z,97660.41
2022-12-13T21:44:49.861Z,97652.00
2022-12-13T21:49:51.741Z,97639.50
2022-12-13T21:55:15.274Z,97632.91
2022-12-13T22:00:16.434Z,97628.75
2022-12-13T22:05:20.136Z,97615.38
2022-12-13T22:10:21.931Z,97623.03
2022-12-13T22:15:23.851Z,97619.75
2022-12-13T22:20:25.646Z,97618.94
2022-12-13T22:25:27.606Z,97612.09
2022-12-13T22:30:29.406Z,97611.22
2022-12-13T22:35:31.116Z,97595.13
2022-12-13T22:40:33.963Z,97607.53
2022-12-13T22:45:36.267Z,97603.13
2022-12-13T22:50:38.275Z,97599.41
2022-12-13T22:55:40.061Z,97604.13
2022-12-13T23:00:42.584Z,97594.75
2022-12-13T23:05:44.401Z,97578.47
2022-12-13T23:11:04.672Z,97578.41
2022-12-13T23:16:07.052Z,97568.03
2022-12-13T23:21:08.865Z,97564.44
2022-12-13T23:26:16.383Z,97559.06
2022-12-13T23:31:19.068Z,97552.94
2022-12-13T23:36:23.928Z,97554.47
2022-12-13T23:41:33.484Z,97543.38
2022-12-13T23:46:36.376Z,97538.13
2022-12-13T23:51:38.191Z,97525.31
2022-12-13T23:56:39.946Z,97520.81
